Time;durP1;ratioP1;P1;durP2;ratioP2;P2;SDS_P1;SDS_P2;PMS_P1;PMS_P2;Temp;Humidity;BMP_temperature;BMP_pressure;BME280_temperature;BME280_humidity;BME280_pressure;Samples;Min_cycle;Max_cycle;Signal;HPM_P1;HPM_P2
2021/03/29 00:01:21;;;;;;;6.90;3.30;;;;;;;;;;6127765;23;20174;-77
2021/03/29 00:03:47;;;;;;;8.60;3.67;;;;;;;;;;6128045;23;20181;-79
2021/03/29 00:06:14;;;;;;;5.67;3.70;;;;;;;;;;6127978;23;20182;-78
2021/03/29 00:08:40;;;;;;;5.40;3.40;;;;;;;;;;6127726;23;20190;-78
2021/03/29 00:11:07;;;;;;;5.70;3.37;;;;;;;;;;6127583;23;20174;-78
2021/03/29 00:13:34;;;;;;;7.27;3.90;;;;;;;;;;6128028;23;20190;-79
2021/03/29 00:16:01;;;;;;;4.63;3.60;;;;;;;;;;6127882;23;20174;-79
2021/03/29 00:18:28;;;;;;;6.17;3.77;;;;;;;;;;6129082;23;20206;-78
2021/03/29 00:20:56;;;;;;;6.63;3.80;;;;;;;;;;6129209;23;20181;-79
2021/03/29 00:23:23;;;;;;;7.27;3.40;;;;;;;;;;6129798;23;20440;-79
2021/03/29 00:25:49;;;;;;;7.53;3.93;;;;;;;;;;6129500;23;20174;-79
2021/03/29 00:28:15;;;;;;;10.80;3.70;;;;;;;;;;6129602;23;20201;-79
2021/03/29 00:30:45;;;;;;;7.10;3.47;;;;;;;;;;6129695;23;20174;-78
2021/03/29 00:33:12;;;;;;;8.97;4.03;;;;;;;;;;6129333;23;20181;-80
2021/03/29 00:35:39;;;;;;;7.67;3.97;;;;;;;;;;6129368;23;20574;-79
2021/03/29 00:38:07;;;;;;;6.80;3.60;;;;;;;;;;6129163;23;20169;-78
2021/03/29 00:40:35;;;;;;;7.57;3.60;;;;;;;;;;6129421;23;20174;-79
2021/03/29 00:43:06;;;;;;;8.23;3.67;;;;;;;;;;6129341;23;20174;-79
2021/03/29 00:45:33;;;;;;;7.03;3.70;;;;;;;;;;6129394;23;20178;-78
2021/03/29 00:48:00;;;;;;;6.90;3.87;;;;;;;;;;6128501;23;20194;-78
2021/03/29 00:50:28;;;;;;;7.33;3.50;;;;;;;;;;6129467;23;20189;-79
2021/03/29 00:52:55;;;;;;;8.27;4.20;;;;;;;;;;6128908;23;20174;-78
2021/03/29 00:55:21;;;;;;;6.20;3.77;;;;;;;;;;6128905;23;20178;-79
2021/03/29 00:57:49;;;;;;;4.07;3.40;;;;;;;;;;6129035;23;20173;-79
2021/03/29 01:00:18;;;;;;;9.60;3.90;;;;;;;;;;6129607;23;20178;-79
2021/03/29 01:02:44;;;;;;;4.53;3.30;;;;;;;;;;6129001;23;20599;-78
2021/03/29 01:05:13;;;;;;;4.77;3.57;;;;;;;;;;6129578;23;20174;-79
2021/03/29 01:07:39;;;;;;;6.33;3.60;;;;;;;;;;6103470;23;20286;-79
2021/03/29 01:10:06;;;;;;;4.47;3.90;;;;;;;;;;6129371;23;20181;-79
2021/03/29 01:12:32;;;;;;;10.17;4.20;;;;;;;;;;6128739;23;20575;-79
2021/03/29 01:14:59;;;;;;;13.40;3.77;;;;;;;;;;6129238;23;20178;-80
2021/03/29 01:17:28;;;;;;;6.03;3.67;;;;;;;;;;6128559;23;20201;-79
2021/03/29 01:20:03;;;;;;;6.40;3.97;;;;;;;;;;6128932;23;20178;-79
2021/03/29 01:22:31;;;;;;;5.67;3.80;;;;;;;;;;6128817;23;20180;-79
2021/03/29 01:25:02;;;;;;;7.47;3.53;;;;;;;;;;6128962;23;20177;-77
2021/03/29 01:27:33;;;;;;;6.70;3.60;;;;;;;;;;6128570;23;20586;-78
2021/03/29 01:29:59;;;;;;;9.07;3.93;;;;;;;;;;6129393;23;20209;-77
2021/03/29 01:32:26;;;;;;;6.17;3.60;;;;;;;;;;6128525;23;20181;-78
2021/03/29 01:34:54;;;;;;;4.87;3.40;;;;;;;;;;6129157;23;20174;-79
2021/03/29 01:37:20;;;;;;;6.53;3.07;;;;;;;;;;6128869;23;20181;-79
2021/03/29 01:39:48;;;;;;;9.10;3.97;;;;;;;;;;6129298;23;20177;-79
2021/03/29 01:42:14;;;;;;;8.87;3.80;;;;;;;;;;6128511;23;20174;-78
2021/03/29 01:44:42;;;;;;;5.57;3.47;;;;;;;;;;6128943;23;20540;-77
2021/03/29 01:47:09;;;;;;;5.50;2.97;;;;;;;;;;6128328;23;20181;-78
2021/03/29 01:49:36;;;;;;;6.00;3.70;;;;;;;;;;6129069;23;20190;-77
2021/03/29 01:52:03;;;;;;;9.47;3.47;;;;;;;;;;6128068;23;20178;-78
2021/03/29 01:54:30;;;;;;;10.07;3.60;;;;;;;;;;6128569;23;20189;-78
2021/03/29 01:56:56;;;;;;;8.53;3.47;;;;;;;;;;6128093;23;20398;-79
2021/03/29 01:59:22;;;;;;;6.70;3.33;;;;;;;;;;6128842;23;20181;-78
2021/03/29 02:01:49;;;;;;;8.50;3.40;;;;;;;;;;6127518;23;20477;-78
2021/03/29 02:04:16;;;;;;;4.93;3.40;;;;;;;;;;6128880;23;20184;-79
2021/03/29 02:06:43;;;;;;;6.17;3.93;;;;;;;;;;6128078;23;20173;-78
2021/03/29 02:09:09;;;;;;;6.07;3.20;;;;;;;;;;6128889;23;20197;-79
2021/03/29 02:11:35;;;;;;;6.37;3.50;;;;;;;;;;6128437;23;20181;-79
2021/03/29 02:14:02;;;;;;;4.53;3.43;;;;;;;;;;6128397;23;20182;-79
2021/03/29 02:16:29;;;;;;;4.13;3.27;;;;;;;;;;6128042;23;20575;-79
2021/03/29 02:18:58;;;;;;;6.10;3.33;;;;;;;;;;6128267;23;20205;-77
2021/03/29 02:21:25;;;;;;;5.63;3.13;;;;;;;;;;6128807;23;20181;-78
2021/03/29 02:23:54;;;;;;;5.93;3.67;;;;;;;;;;6128264;23;20174;-78
2021/03/29 02:26:21;;;;;;;7.53;3.93;;;;;;;;;;6128008;23;20178;-77
2021/03/29 02:28:47;;;;;;;4.43;2.97;;;;;;;;;;6128260;23;20194;-78
2021/03/29 02:31:14;;;;;;;4.90;3.17;;;;;;;;;;6128111;23;20182;-78
2021/03/29 02:33:41;;;;;;;5.23;3.83;;;;;;;;;;6128332;23;20178;-78
2021/03/29 02:36:08;;;;;;;7.10;3.33;;;;;;;;;;6127893;23;20181;-77
2021/03/29 02:38:35;;;;;;;6.83;3.37;;;;;;;;;;6128662;23;20174;-77
2021/03/29 02:41:01;;;;;;;5.63;3.30;;;;;;;;;;6128208;23;20482;-78
2021/03/29 02:43:28;;;;;;;7.57;3.40;;;;;;;;;;6128433;23;20436;-79
2021/03/29 02:45:55;;;;;;;11.30;3.90;;;;;;;;;;6128081;23;20185;-78
2021/03/29 02:48:22;;;;;;;8.17;3.37;;;;;;;;;;6127423;23;20197;-79
2021/03/29 02:50:49;;;;;;;7.13;3.37;;;;;;;;;;6128223;23;20173;-77
2021/03/29 02:53:17;;;;;;;3.80;3.10;;;;;;;;;;6128435;23;20185;-79
2021/03/29 02:55:43;;;;;;;8.80;3.47;;;;;;;;;;6128207;23;20180;-78
2021/03/29 02:58:10;;;;;;;9.70;3.30;;;;;;;;;;6128171;23;20225;-78
2021/03/29 03:00:36;;;;;;;5.67;3.07;;;;;;;;;;6127642;23;20475;-78
2021/03/29 03:03:04;;;;;;;6.93;3.30;;;;;;;;;;6127421;23;20185;-78
2021/03/29 03:05:31;;;;;;;6.10;3.20;;;;;;;;;;6127796;23;20181;-78
2021/03/29 03:07:57;;;;;;;3.73;3.20;;;;;;;;;;6127354;23;20177;-78
2021/03/29 03:10:25;;;;;;;6.17;2.97;;;;;;;;;;6127821;23;20178;-79
2021/03/29 03:12:52;;;;;;;8.23;3.10;;;;;;;;;;6127194;23;20399;-78
2021/03/29 03:15:19;;;;;;;7.80;3.67;;;;;;;;;;6128138;23;20573;-79
2021/03/29 03:17:45;;;;;;;7.10;3.20;;;;;;;;;;6126932;23;20618;-78
2021/03/29 03:20:12;;;;;;;8.33;3.47;;;;;;;;;;6128014;23;20182;-78
2021/03/29 03:22:47;;;;;;;6.73;3.30;;;;;;;;;;6128126;23;20574;-77
2021/03/29 03:25:16;;;;;;;6.13;3.70;;;;;;;;;;6127836;23;20178;-78
2021/03/29 03:27:44;;;;;;;6.17;3.87;;;;;;;;;;6127779;23;20178;-78
2021/03/29 03:30:15;;;;;;;5.83;3.43;;;;;;;;;;6128080;23;20186;-79
2021/03/29 03:32:41;;;;;;;7.07;3.70;;;;;;;;;;6127750;23;20225;-79
2021/03/29 03:35:08;;;;;;;5.97;3.40;;;;;;;;;;6128278;23;20174;-78
2021/03/29 03:37:36;;;;;;;10.10;3.50;;;;;;;;;;6128115;23;20444;-78
2021/03/29 03:40:03;;;;;;;7.17;3.67;;;;;;;;;;6128238;23;20181;-78
2021/03/29 03:42:29;;;;;;;7.00;4.00;;;;;;;;;;6127098;23;20444;-78
2021/03/29 03:44:57;;;;;;;7.57;4.07;;;;;;;;;;6127634;23;20174;-78
2021/03/29 03:47:23;;;;;;;8.43;3.87;;;;;;;;;;6127524;23;20448;-77
2021/03/29 03:49:49;;;;;;;5.47;3.87;;;;;;;;;;6128068;23;20194;-77
2021/03/29 03:52:16;;;;;;;8.07;4.00;;;;;;;;;;6129882;23;20177;-78
2021/03/29 03:54:42;;;;;;;6.37;3.70;;;;;;;;;;6129952;23;20184;-79
2021/03/29 03:57:08;;;;;;;5.53;3.60;;;;;;;;;;6129293;23;20180;-79
2021/03/29 03:59:35;;;;;;;6.13;3.30;;;;;;;;;;6129642;23;20173;-79
2021/03/29 04:02:03;;;;;;;5.77;2.73;;;;;;;;;;6128831;23;20181;-80
2021/03/29 04:04:29;;;;;;;6.20;2.80;;;;;;;;;;6130277;23;20174;-78
2021/03/29 04:06:57;;;;;;;9.03;3.27;;;;;;;;;;6129347;23;20590;-80
2021/03/29 04:09:31;;;;;;;4.53;2.50;;;;;;;;;;6130216;23;20417;-79
2021/03/29 04:11:57;;;;;;;4.03;3.00;;;;;;;;;;6129794;23;20177;-80
2021/03/29 04:14:23;;;;;;;5.33;2.90;;;;;;;;;;6129384;23;20182;-80
2021/03/29 04:16:49;;;;;;;8.23;2.77;;;;;;;;;;6129001;23;20174;-79
2021/03/29 04:19:16;;;;;;;6.23;3.13;;;;;;;;;;6099013;23;20198;-78
2021/03/29 04:21:42;;;;;;;7.43;2.90;;;;;;;;;;6100672;23;20480;-79
2021/03/29 04:24:09;;;;;;;5.73;2.97;;;;;;;;;;6100783;23;20179;-78
2021/03/29 04:26:35;;;;;;;7.40;3.60;;;;;;;;;;6100804;23;20178;-78
2021/03/29 04:29:01;;;;;;;5.13;3.20;;;;;;;;;;6100658;23;20191;-78
2021/03/29 04:31:27;;;;;;;8.07;4.00;;;;;;;;;;6100344;23;20201;-78
2021/03/29 04:33:53;;;;;;;6.33;3.30;;;;;;;;;;6100735;23;20218;-78
2021/03/29 04:36:20;;;;;;;8.20;3.60;;;;;;;;;;6100051;23;20178;-78
2021/03/29 04:38:46;;;;;;;6.83;3.27;;;;;;;;;;6099307;23;20171;-78
2021/03/29 04:41:12;;;;;;;4.33;3.20;;;;;;;;;;6099945;23;20552;-78
2021/03/29 04:43:38;;;;;;;5.27;3.90;;;;;;;;;;6100732;23;20179;-78
2021/03/29 04:46:05;;;;;;;3.53;3.20;;;;;;;;;;6100482;23;20175;-78
2021/03/29 04:48:31;;;;;;;8.13;3.90;;;;;;;;;;6100541;23;20544;-78
2021/03/29 04:50:57;;;;;;;5.63;3.47;;;;;;;;;;6100145;23;20201;-78
2021/03/29 04:53:24;;;;;;;7.60;3.70;;;;;;;;;;6100474;23;20183;-78
2021/03/29 04:55:50;;;;;;;10.37;3.83;;;;;;;;;;6100233;23;20182;-77
2021/03/29 04:58:16;;;;;;;5.93;3.50;;;;;;;;;;6100370;23;20175;-79
2021/03/29 05:00:42;;;;;;;5.97;3.53;;;;;;;;;;6100230;23;20179;-78
2021/03/29 05:03:08;;;;;;;8.27;3.77;;;;;;;;;;6099665;23;20473;-78
2021/03/29 05:05:34;;;;;;;11.67;3.40;;;;;;;;;;6100188;23;20179;-79
2021/03/29 05:08:00;;;;;;;5.47;3.63;;;;;;;;;;6100304;23;20182;-78
2021/03/29 05:10:27;;;;;;;6.50;3.13;;;;;;;;;;6100137;23;20449;-77
2021/03/29 05:12:53;;;;;;;8.87;4.10;;;;;;;;;;6098775;23;20175;-78
2021/03/29 05:15:19;;;;;;;7.10;3.80;;;;;;;;;;6100084;23;20175;-77
2021/03/29 05:17:46;;;;;;;10.20;3.70;;;;;;;;;;6108946;23;20213;-77
2021/03/29 05:20:12;;;;;;;8.37;3.60;;;;;;;;;;6128620;23;20170;-77
2021/03/29 05:22:38;;;;;;;5.80;3.93;;;;;;;;;;6128913;23;20173;-78
2021/03/29 05:25:05;;;;;;;5.87;3.43;;;;;;;;;;6128764;23;20174;-77
2021/03/29 05:27:32;;;;;;;7.90;3.40;;;;;;;;;;6128808;23;20174;-77
2021/03/29 05:29:58;;;;;;;7.27;3.80;;;;;;;;;;6129095;23;20456;-77
2021/03/29 05:32:25;;;;;;;8.77;4.03;;;;;;;;;;6127822;23;20769;-75
2021/03/29 05:34:52;;;;;;;6.20;3.53;;;;;;;;;;6129152;23;20563;-76
2021/03/29 05:37:19;;;;;;;5.93;3.20;;;;;;;;;;6128866;23;20181;-77
2021/03/29 05:39:45;;;;;;;6.80;3.87;;;;;;;;;;6128840;23;20225;-77
2021/03/29 05:42:11;;;;;;;8.93;3.27;;;;;;;;;;6128151;23;20174;-75
2021/03/29 05:44:38;;;;;;;8.33;3.77;;;;;;;;;;6129038;23;20181;-76
2021/03/29 05:47:05;;;;;;;5.50;3.57;;;;;;;;;;6128610;23;20181;-78
2021/03/29 05:49:31;;;;;;;6.17;3.77;;;;;;;;;;6128810;23;20190;-78
2021/03/29 05:51:57;;;;;;;6.80;3.57;;;;;;;;;;6128503;23;20174;-77
2021/03/29 05:54:23;;;;;;;4.33;3.20;;;;;;;;;;6128658;23;20181;-80
2021/03/29 05:56:50;;;;;;;5.93;3.50;;;;;;;;;;6128355;23;20447;-75
2021/03/29 05:59:17;;;;;;;5.60;3.40;;;;;;;;;;6128460;23;20170;-79
2021/03/29 06:01:46;;;;;;;7.40;3.60;;;;;;;;;;6128296;23;20181;-78
2021/03/29 06:04:13;;;;;;;6.10;3.43;;;;;;;;;;6128495;23;20200;-79
2021/03/29 06:06:39;;;;;;;6.07;3.50;;;;;;;;;;6102505;23;20183;-77
2021/03/29 06:09:06;;;;;;;4.27;3.70;;;;;;;;;;6128590;23;20189;-78
2021/03/29 06:11:32;;;;;;;9.43;3.63;;;;;;;;;;6128181;23;20178;-77
2021/03/29 06:14:15;;;;;;;9.33;3.67;;;;;;;;;;6128331;23;20178;-77
2021/03/29 06:16:55;;;;;;;12.07;3.40;;;;;;;;;;6128422;23;20174;-76
2021/03/29 06:19:35;;;;;;;6.90;3.30;;;;;;;;;;6128323;23;20204;-77
2021/03/29 06:22:06;;;;;;;6.83;3.60;;;;;;;;;;6129035;23;20161;-80
2021/03/29 06:24:49;;;;;;;5.10;3.40;;;;;;;;;;6128224;23;20174;-77
2021/03/29 06:27:16;;;;;;;11.57;3.33;;;;;;;;;;6128111;23;20444;-76
2021/03/29 06:29:42;;;;;;;10.43;3.53;;;;;;;;;;6128301;23;20194;-76
2021/03/29 06:32:09;;;;;;;9.50;3.50;;;;;;;;;;6128414;23;20189;-76
2021/03/29 06:34:35;;;;;;;7.93;3.50;;;;;;;;;;6128245;23;20178;-77
2021/03/29 06:37:06;;;;;;;9.77;3.83;;;;;;;;;;6128257;23;20181;-77
2021/03/29 06:39:35;;;;;;;5.50;3.53;;;;;;;;;;6128035;23;20177;-76
2021/03/29 06:42:01;;;;;;;7.27;3.70;;;;;;;;;;6128307;23;20492;-77
2021/03/29 06:44:29;;;;;;;8.70;3.40;;;;;;;;;;6128359;23;20181;-77
2021/03/29 06:47:05;;;;;;;7.27;3.63;;;;;;;;;;6127847;23;20181;-77
2021/03/29 06:49:42;;;;;;;6.23;3.37;;;;;;;;;;6128033;23;20197;-76
2021/03/29 06:52:24;;;;;;;4.63;3.13;;;;;;;;;;6128722;23;20178;-76
2021/03/29 06:54:50;;;;;;;19.73;9.13;;;;;;;;;;6127825;23;20185;-76
2021/03/29 06:57:26;;;;;;;17.43;7.10;;;;;;;;;;6128072;23;20185;-78
2021/03/29 06:59:52;;;;;;;7.17;4.03;;;;;;;;;;6128043;23;20181;-79
2021/03/29 07:02:34;;;;;;;6.60;3.60;;;;;;;;;;6128251;23;20181;-78
2021/03/29 07:05:01;;;;;;;7.80;3.43;;;;;;;;;;6127607;23;20393;-76
2021/03/29 07:07:28;;;;;;;6.80;3.20;;;;;;;;;;6128444;23;20178;-77
2021/03/29 07:09:54;;;;;;;6.57;3.60;;;;;;;;;;6127824;23;20196;-76
2021/03/29 07:12:22;;;;;;;8.83;3.43;;;;;;;;;;6128146;23;20174;-77
2021/03/29 07:14:49;;;;;;;8.97;3.23;;;;;;;;;;6127905;23;20178;-77
2021/03/29 07:17:16;;;;;;;8.83;4.67;;;;;;;;;;6127384;23;20174;-78
2021/03/29 07:19:43;;;;;;;8.50;4.47;;;;;;;;;;6127433;23;20582;-76
2021/03/29 07:22:11;;;;;;;11.57;5.20;;;;;;;;;;6127629;23;20193;-78
2021/03/29 07:24:37;;;;;;;8.30;3.63;;;;;;;;;;6127934;23;20181;-77
2021/03/29 07:27:05;;;;;;;5.77;3.57;;;;;;;;;;6128113;23;20213;-78
2021/03/29 07:29:32;;;;;;;3.70;2.87;;;;;;;;;;6127812;23;20559;-77
2021/03/29 07:31:59;;;;;;;5.80;3.00;;;;;;;;;;6127285;23;20235;-76
2021/03/29 07:34:41;;;;;;;6.10;2.87;;;;;;;;;;6127349;23;20177;-76
2021/03/29 07:37:22;;;;;;;8.00;3.27;;;;;;;;;;6127601;23;20174;-77
2021/03/29 07:39:49;;;;;;;4.80;3.07;;;;;;;;;;6127608;23;20170;-77
2021/03/29 07:42:33;;;;;;;5.13;3.20;;;;;;;;;;6127535;23;20178;-79
2021/03/29 07:45:00;;;;;;;5.13;2.73;;;;;;;;;;6127615;23;20178;-77
2021/03/29 07:47:42;;;;;;;7.70;3.93;;;;;;;;;;6127983;23;20174;-76
2021/03/29 07:50:09;;;;;;;5.70;2.67;;;;;;;;;;6128155;23;20189;-79
2021/03/29 07:52:39;;;;;;;4.87;2.57;;;;;;;;;;6127615;23;20410;-78
2021/03/29 07:55:16;;;;;;;2.83;2.13;;;;;;;;;;6126845;23;20485;-78
2021/03/29 07:58:01;;;;;;;6.43;2.73;;;;;;;;;;6127625;23;20444;-78
2021/03/29 08:00:46;;;;;;;4.33;2.50;;;;;;;;;;6127485;23;20410;-77
2021/03/29 08:03:30;;;;;;;3.03;2.60;;;;;;;;;;6127848;23;20184;-78
2021/03/29 08:05:56;;;;;;;5.17;2.80;;;;;;;;;;6127465;23;20174;-76
2021/03/29 08:08:39;;;;;;;5.67;2.30;;;;;;;;;;6127694;23;20560;-77
2021/03/29 08:11:06;;;;;;;5.33;2.50;;;;;;;;;;6127289;23;20452;-76
2021/03/29 08:13:36;;;;;;;8.10;3.03;;;;;;;;;;6128132;23;20198;-77
2021/03/29 08:16:03;;;;;;;5.20;2.73;;;;;;;;;;6127190;23;20185;-76
2021/03/29 08:18:29;;;;;;;4.57;2.43;;;;;;;;;;6127461;23;20507;-79
2021/03/29 08:20:56;;;;;;;2.33;2.10;;;;;;;;;;6126749;23;20616;-77
2021/03/29 08:23:30;;;;;;;3.90;2.47;;;;;;;;;;6128703;23;20178;-78
2021/03/29 08:26:07;;;;;;;6.17;2.40;;;;;;;;;;6127482;23;20174;-79
2021/03/29 08:28:52;;;;;;;4.37;2.33;;;;;;;;;;6128049;23;20174;-80
2021/03/29 08:31:33;;;;;;;5.00;2.63;;;;;;;;;;6127590;23;20193;-80
2021/03/29 08:33:59;;;;;;;4.93;2.10;;;;;;;;;;6126438;23;20182;-77
2021/03/29 08:36:25;;;;;;;4.90;2.80;;;;;;;;;;6127746;23;20182;-77
2021/03/29 08:38:51;;;;;;;5.83;2.60;;;;;;;;;;6129645;23;20181;-76
2021/03/29 08:41:18;;;;;;;5.57;2.53;;;;;;;;;;6129137;23;20170;-80
2021/03/29 08:43:44;;;;;;;3.83;2.40;;;;;;;;;;6129730;23;20178;-77
2021/03/29 08:46:10;;;;;;;8.80;2.80;;;;;;;;;;6128980;23;20178;-80
2021/03/29 08:48:36;;;;;;;3.77;2.47;;;;;;;;;;6129174;23;20174;-77
2021/03/29 08:51:03;;;;;;;4.00;2.40;;;;;;;;;;6129309;23;20531;-78
2021/03/29 08:53:29;;;;;;;8.67;2.60;;;;;;;;;;6129636;23;20229;-78
2021/03/29 08:55:56;;;;;;;7.20;2.37;;;;;;;;;;6129277;23;20578;-79
2021/03/29 08:58:22;;;;;;;6.70;2.90;;;;;;;;;;6129627;23;20270;-77
2021/03/29 09:00:49;;;;;;;2.97;2.07;;;;;;;;;;6128805;23;20170;-77
2021/03/29 09:03:16;;;;;;;2.60;1.97;;;;;;;;;;6129141;23;20173;-78
2021/03/29 09:05:42;;;;;;;3.93;2.50;;;;;;;;;;6128745;23;20182;-77
2021/03/29 09:08:09;;;;;;;6.00;2.50;;;;;;;;;;6129674;23;20445;-77
2021/03/29 09:10:35;;;;;;;4.37;2.30;;;;;;;;;;6129021;23;20189;-77
2021/03/29 09:13:02;;;;;;;4.53;1.90;;;;;;;;;;6129377;23;20438;-77
2021/03/29 09:15:30;;;;;;;4.00;2.30;;;;;;;;;;6129411;23;20159;-77
2021/03/29 09:17:58;;;;;;;5.60;2.10;;;;;;;;;;6128765;23;20202;-77
2021/03/29 09:20:25;;;;;;;3.87;2.00;;;;;;;;;;6128197;23;20488;-78
2021/03/29 09:22:51;;;;;;;4.13;2.60;;;;;;;;;;6129204;23;20174;-77
2021/03/29 09:25:25;;;;;;;3.80;1.83;;;;;;;;;;6128145;23;20178;-78
2021/03/29 09:28:06;;;;;;;4.80;1.63;;;;;;;;;;6129194;23;20418;-77
2021/03/29 09:30:33;;;;;;;5.17;2.00;;;;;;;;;;6124281;23;20190;-77
2021/03/29 09:32:59;;;;;;;3.40;2.03;;;;;;;;;;6128984;23;20221;-77
2021/03/29 09:35:25;;;;;;;4.50;2.00;;;;;;;;;;6127940;23;20181;-77
2021/03/29 09:37:51;;;;;;;3.13;1.63;;;;;;;;;;6129233;23;20185;-76
2021/03/29 09:40:18;;;;;;;3.93;2.10;;;;;;;;;;6128960;23;20177;-78
2021/03/29 09:42:45;;;;;;;5.53;1.73;;;;;;;;;;6129167;23;20193;-76
2021/03/29 09:45:12;;;;;;;5.67;1.70;;;;;;;;;;6128955;23;20174;-77
2021/03/29 09:47:39;;;;;;;10.30;2.90;;;;;;;;;;6128406;23;20174;-76
2021/03/29 09:50:06;;;;;;;1.87;1.77;;;;;;;;;;6128115;23;20194;-77
2021/03/29 09:52:33;;;;;;;3.43;2.10;;;;;;;;;;6129128;23;20228;-78
2021/03/29 09:54:59;;;;;;;2.50;2.00;;;;;;;;;;6128529;23;20181;-80
2021/03/29 09:57:27;;;;;;;4.13;1.57;;;;;;;;;;6128952;23;20185;-79
2021/03/29 09:59:54;;;;;;;8.73;2.17;;;;;;;;;;6128099;23;20406;-78
2021/03/29 10:02:22;;;;;;;4.90;1.73;;;;;;;;;;6128641;23;20178;-77
2021/03/29 10:04:59;;;;;;;4.07;1.87;;;;;;;;;;6128134;23;20221;-77
2021/03/29 10:07:25;;;;;;;3.13;1.83;;;;;;;;;;6128434;23;20194;-77
2021/03/29 10:09:57;;;;;;;4.43;1.83;;;;;;;;;;6128349;23;20556;-79
2021/03/29 10:12:24;;;;;;;6.00;1.87;;;;;;;;;;6128601;23;20182;-79
2021/03/29 10:15:03;;;;;;;5.80;1.93;;;;;;;;;;6128579;23;20204;-78
2021/03/29 10:17:29;;;;;;;4.60;2.03;;;;;;;;;;6128425;23;20205;-77
2021/03/29 10:20:04;;;;;;;3.13;1.90;;;;;;;;;;6127750;23;20483;-77
2021/03/29 10:22:30;;;;;;;5.53;1.80;;;;;;;;;;6128995;23;20202;-78
2021/03/29 10:24:57;;;;;;;2.63;1.70;;;;;;;;;;6128490;23;20583;-77
2021/03/29 10:27:23;;;;;;;2.23;1.50;;;;;;;;;;6128489;23;20185;-79
2021/03/29 10:29:49;;;;;;;2.77;1.83;;;;;;;;;;6128302;23;20229;-77
2021/03/29 10:32:17;;;;;;;3.47;1.77;;;;;;;;;;6128568;23;20184;-78
2021/03/29 10:34:44;;;;;;;4.43;1.40;;;;;;;;;;6127107;23;20432;-78
2021/03/29 10:37:18;;;;;;;3.63;1.83;;;;;;;;;;6127564;23;20185;-78
2021/03/29 10:39:45;;;;;;;2.03;1.63;;;;;;;;;;6128427;23;20565;-81
2021/03/29 10:42:11;;;;;;;4.77;1.90;;;;;;;;;;6128404;23;20185;-78
2021/03/29 10:44:37;;;;;;;3.17;1.47;;;;;;;;;;6128028;23;20653;-77
2021/03/29 10:47:04;;;;;;;2.67;1.40;;;;;;;;;;6127899;23;20174;-77
2021/03/29 10:49:30;;;;;;;5.07;1.90;;;;;;;;;;6128546;23;20174;-77
2021/03/29 10:51:56;;;;;;;3.13;1.60;;;;;;;;;;6102382;23;20696;-78
2021/03/29 10:54:23;;;;;;;3.17;1.80;;;;;;;;;;6127827;23;20174;-80
2021/03/29 10:56:49;;;;;;;2.43;1.53;;;;;;;;;;6128360;23;20174;-79
2021/03/29 10:59:15;;;;;;;6.23;1.77;;;;;;;;;;6128229;23;20174;-81
2021/03/29 11:01:41;;;;;;;3.73;1.50;;;;;;;;;;6128093;23;20181;-81
2021/03/29 11:04:07;;;;;;;2.53;1.50;;;;;;;;;;6127949;23;20177;-81
2021/03/29 11:06:33;;;;;;;4.43;1.60;;;;;;;;;;6127624;23;20174;-81
2021/03/29 11:08:59;;;;;;;3.57;1.70;;;;;;;;;;6128495;23;20444;-79
2021/03/29 11:11:26;;;;;;;2.67;1.60;;;;;;;;;;6127565;23;20568;-79
2021/03/29 11:13:53;;;;;;;3.53;1.80;;;;;;;;;;6128005;23;20174;-79
2021/03/29 11:16:21;;;;;;;5.13;1.47;;;;;;;;;;6127573;23;20184;-76
2021/03/29 11:18:47;;;;;;;1.73;1.50;;;;;;;;;;6127478;23;20205;-80
2021/03/29 11:21:13;;;;;;;3.13;1.77;;;;;;;;;;6127421;23;20174;-80
2021/03/29 11:23:39;;;;;;;4.47;1.57;;;;;;;;;;6102434;23;20174;-78
2021/03/29 11:26:05;;;;;;;3.00;1.50;;;;;;;;;;6127647;23;20390;-78
2021/03/29 11:28:32;;;;;;;4.20;2.03;;;;;;;;;;6127996;23;20174;-76
2021/03/29 11:30:58;;;;;;;2.73;1.73;;;;;;;;;;6127697;23;20208;-77
2021/03/29 11:33:24;;;;;;;2.37;1.60;;;;;;;;;;6127994;23;20182;-79
2021/03/29 11:35:50;;;;;;;3.30;2.00;;;;;;;;;;6127720;23;20560;-77
2021/03/29 11:38:17;;;;;;;4.67;1.80;;;;;;;;;;6127571;23;20208;-76
2021/03/29 11:40:43;;;;;;;3.53;1.60;;;;;;;;;;6128125;23;20170;-78
2021/03/29 11:43:09;;;;;;;3.97;1.80;;;;;;;;;;6127780;23;20174;-77
2021/03/29 11:45:36;;;;;;;2.97;1.83;;;;;;;;;;6127228;23;20178;-77
2021/03/29 11:48:02;;;;;;;3.63;1.33;;;;;;;;;;6128004;23;20181;-77
2021/03/29 11:50:28;;;;;;;3.30;1.50;;;;;;;;;;6127734;23;20290;-77
2021/03/29 11:52:54;;;;;;;6.80;2.10;;;;;;;;;;6127834;23;20181;-77
2021/03/29 11:55:21;;;;;;;1.87;1.40;;;;;;;;;;6127778;23;20178;-77
2021/03/29 11:57:47;;;;;;;3.00;1.60;;;;;;;;;;6128101;23;20181;-77
2021/03/29 12:00:16;;;;;;;4.70;1.90;;;;;;;;;;6102150;23;20178;-76
2021/03/29 12:02:48;;;;;;;5.87;1.60;;;;;;;;;;6127974;23;20237;-77
2021/03/29 12:05:17;;;;;;;2.50;1.60;;;;;;;;;;6127253;23;20174;-77
2021/03/29 12:07:52;;;;;;;1.87;1.43;;;;;;;;;;6127468;23;20175;-77
2021/03/29 12:13:03;;;;;;;6.67;3.13;;;;;;;;;;6129614;23;20153;-77
2021/03/29 12:15:29;;;;;;;3.60;2.00;;;;;;;;;;6129774;23;20189;-77
2021/03/29 12:17:57;;;;;;;2.37;1.53;;;;;;;;;;6129327;23;20202;-77
2021/03/29 12:20:23;;;;;;;1.70;1.50;;;;;;;;;;6129296;23;20484;-77
2021/03/29 12:22:50;;;;;;;2.57;1.67;;;;;;;;;;6129195;23;20178;-79
2021/03/29 12:25:18;;;;;;;2.38;1.35;;;;;;;;;;6129155;23;20622;-78
2021/03/29 12:27:44;;;;;;;1.95;1.50;;;;;;;;;;6129758;23;20178;-78
2021/03/29 12:30:14;;;;;;;3.53;1.70;;;;;;;;;;6128743;23;20193;-79
2021/03/29 12:32:41;;;;;;;2.35;1.73;;;;;;;;;;6129430;23;20594;-79
2021/03/29 12:35:11;;;;;;;1.70;1.50;;;;;;;;;;6129213;23;20174;-79
2021/03/29 12:37:39;;;;;;;3.23;1.70;;;;;;;;;;6129921;23;20174;-79
2021/03/29 12:40:09;;;;;;;1.67;1.50;;;;;;;;;;6128957;23;20181;-80
2021/03/29 12:42:39;;;;;;;3.77;1.97;;;;;;;;;;6129459;23;20543;-79
2021/03/29 12:45:06;;;;;;;4.15;2.00;;;;;;;;;;6128692;23;20209;-77
2021/03/29 12:47:34;;;;;;;2.47;1.70;;;;;;;;;;6129505;23;20205;-76
2021/03/29 12:50:07;;;;;;;6.47;1.90;;;;;;;;;;6129464;23;20405;-77
2021/03/29 12:52:35;;;;;;;2.92;1.95;;;;;;;;;;6129705;23;20424;-75
2021/03/29 12:55:01;;;;;;;6.68;2.05;;;;;;;;;;6128416;23;20186;-75
2021/03/29 12:57:27;;;;;;;1.98;1.60;;;;;;;;;;6129457;23;20181;-76
2021/03/29 12:59:53;;;;;;;2.70;1.38;;;;;;;;;;6129245;23;20178;-77
2021/03/29 13:02:20;;;;;;;2.28;1.90;;;;;;;;;;6129587;23;20170;-77
2021/03/29 13:04:48;;;;;;;7.32;3.90;;;;;;;;;;6129148;23;20174;-76
2021/03/29 13:07:20;;;;;;;2.85;1.70;;;;;;;;;;6129419;23;20173;-77
2021/03/29 13:09:52;;;;;;;1.50;1.40;;;;;;;;;;6129201;23;20190;-77
2021/03/29 13:12:19;;;;;;;1.95;1.45;;;;;;;;;;6129099;23;20186;-77
2021/03/29 13:14:58;;;;;;;2.80;1.60;;;;;;;;;;6128748;23;20178;-77
2021/03/29 13:17:24;;;;;;;1.63;1.50;;;;;;;;;;6129168;23;20228;-77
2021/03/29 13:19:50;;;;;;;2.00;1.45;;;;;;;;;;6128730;23;20174;-78
2021/03/29 13:22:16;;;;;;;1.60;1.50;;;;;;;;;;6128873;23;20174;-77
2021/03/29 13:24:43;;;;;;;1.50;1.40;;;;;;;;;;6128396;23;20425;-76
2021/03/29 13:27:10;;;;;;;4.15;1.85;;;;;;;;;;6128995;23;20206;-77
2021/03/29 13:29:36;;;;;;;2.67;1.92;;;;;;;;;;6128016;23;20178;-77
2021/03/29 13:32:03;;;;;;;4.55;2.00;;;;;;;;;;6128356;23;20496;-76
2021/03/29 13:34:29;;;;;;;3.08;1.60;;;;;;;;;;6128603;23;20177;-76
2021/03/29 13:36:56;;;;;;;1.60;1.50;;;;;;;;;;6128884;23;20174;-77
2021/03/29 13:39:22;;;;;;;3.50;1.50;;;;;;;;;;6128786;23;20181;-76
2021/03/29 13:41:48;;;;;;;2.05;1.70;;;;;;;;;;6128754;23;20552;-77
2021/03/29 13:44:15;;;;;;;2.53;1.50;;;;;;;;;;6127951;23;20174;-76
2021/03/29 13:46:43;;;;;;;4.00;1.88;;;;;;;;;;6128090;23;20460;-76
2021/03/29 13:49:10;;;;;;;2.22;1.45;;;;;;;;;;6127737;23;20174;-76
2021/03/29 13:51:36;;;;;;;2.33;1.50;;;;;;;;;;6127764;23;20190;-77
2021/03/29 13:54:07;;;;;;;2.80;1.65;;;;;;;;;;6127397;23;20181;-76
2021/03/29 13:56:34;;;;;;;2.45;1.92;;;;;;;;;;6127514;23;20551;-77
2021/03/29 13:59:00;;;;;;;5.55;1.50;;;;;;;;;;6127806;23;20181;-76
2021/03/29 14:01:30;;;;;;;1.70;1.60;;;;;;;;;;6127760;23;20177;-77
2021/03/29 14:03:56;;;;;;;1.95;1.73;;;;;;;;;;6127959;23;20174;-76
2021/03/29 14:06:22;;;;;;;5.82;2.53;;;;;;;;;;6127689;23;20185;-76
2021/03/29 14:08:48;;;;;;;3.60;1.52;;;;;;;;;;6128056;23;20182;-77
2021/03/29 14:11:14;;;;;;;3.03;1.70;;;;;;;;;;6127771;23;20201;-77
2021/03/29 14:13:40;;;;;;;2.00;1.52;;;;;;;;;;6128384;23;20174;-79
2021/03/29 14:16:07;;;;;;;2.47;1.63;;;;;;;;;;6129056;23;20181;-76
2021/03/29 14:18:34;;;;;;;1.77;1.60;;;;;;;;;;6128185;23;20202;-77
2021/03/29 14:21:03;;;;;;;2.53;1.60;;;;;;;;;;6128622;23;20544;-77
2021/03/29 14:23:29;;;;;;;2.63;1.80;;;;;;;;;;6128544;23;20233;-76
2021/03/29 14:25:55;;;;;;;1.98;1.70;;;;;;;;;;6128159;23;20193;-77
2021/03/29 14:28:21;;;;;;;1.40;1.27;;;;;;;;;;6128672;23;20185;-76
2021/03/29 14:30:47;;;;;;;3.10;1.67;;;;;;;;;;6128090;23;20189;-77
2021/03/29 14:33:13;;;;;;;3.80;1.55;;;;;;;;;;6128411;23;20174;-77
2021/03/29 14:35:44;;;;;;;1.60;1.50;;;;;;;;;;6127051;23;20440;-77
2021/03/29 14:41:19;;;;;;;2.03;1.42;;;;;;;;;;6128675;23;20142;-77
2021/03/29 14:46:31;;;;;;;3.15;1.73;;;;;;;;;;6079325;23;20166;-77
2021/03/29 14:48:57;;;;;;;3.42;1.65;;;;;;;;;;6128531;23;20174;-77
2021/03/29 14:51:24;;;;;;;3.00;1.58;;;;;;;;;;6127707;23;20201;-78
2021/03/29 14:53:51;;;;;;;1.80;1.70;;;;;;;;;;6127338;23;20174;-78
2021/03/29 14:56:17;;;;;;;2.50;1.70;;;;;;;;;;6127616;23;20181;-77